Gulf Shores, Alabama
Current Conditions -  °F | °C
As of 8:35 AM on Sunday 23 Nov 2014 (Local Time) from KJKA Reporting Station
Haze Haze  
Wind Chill: 71°   Ceiling: 1600
Heat Index: 71°   Visibility: 4mi
Dew Point: 70°   Wind: 6mph
Humidity: 97%   Direction: 160°SSE
Pressure: 29.79"   Gusts: NA
Location:  30.27°N, 87.7°W
Report Text: KJKA 231435Z AUTO 16005KT 4SM BR SCT007 BKN016 OVC022 22/21 A2979 RMK AO2 T02170212
Loading
Personal Weather Stations






























Interactive Weather Map New forecast layout! Learn more

10-Day Weather Forecast

Advertisements
Track Severe Weather on mobile